Terminal Aerodrome Forecast
Issued by NWS

Home | Current Version | Previous Version | Text Only | Print | Product List | Glossary On
Versions: 1 2 3 4 5 6 7 8 9 10 11 12 13
632
FTUS46 KPDT 212320
TAFDLS
TAF
KDLS 212320Z 2200/2224 33012G20KT P6SM FEW250
     FM220400 30010KT P6SM FEW120 SCT250
     FM221200 30007KT P6SM SCT120 SCT200
     FM222100 31012KT P6SM SKC=

USA.gov is the U.S. government's official web portal to all federal, state and local government web resources and services.